Time,TemperatureF,DewpointF,PressureIn,WindDirection,WindDirectionDegrees,WindSpeedMPH,WindSpeedGustMPH,Humidity,HourlyPrecipIn,Conditions,Clouds,dailyrainin,SoftwareType,DateUTC
2013-01-07 00:00:00,43.1,43.1,30.12,West,271,10.0,16.0,100,0.00,,CLR,0.07,VWS V14.01,2013-01-07 08:00:00,
2013-01-07 00:01:00,43.1,43.1,30.12,West,271,10.0,16.0,100,0.00,,CLR,0.07,VWS V14.01,2013-01-07 08:01:00,
2013-01-07 00:06:00,42.9,42.9,30.12,NW,304,10.0,14.0,100,0.00,,CLR,0.00,VWS V14.01,2013-01-07 08:06:00,
2013-01-07 00:11:00,42.9,42.9,30.12,WSW,241,1.0,14.0,100,0.00,,CLR,0.00,VWS V14.01,2013-01-07 08:11:00,
2013-01-07 00:15:00,42.8,42.8,30.12,NW,316,2.0,14.0,100,0.00,,CLR,0.00,VWS V14.01,2013-01-07 08:15:00,
2013-01-07 00:16:00,42.8,42.8,30.12,West,260,2.0,2.0,100,0.00,,CLR,0.00,VWS V14.01,2013-01-07 08:16:00,
2013-01-07 00:21:00,42.8,42.8,30.12,North,2,1.0,9.0,100,0.00,,CLR,0.00,VWS V14.01,2013-01-07 08:21:00,
2013-01-07 00:26:00,42.8,42.8,30.12,NW,322,6.0,9.0,100,0.00,,CLR,0.00,VWS V14.01,2013-01-07 08:26:00,
2013-01-07 00:30:00,42.8,42.8,30.12,WSW,256,5.0,10.0,100,0.00,,CLR,0.00,VWS V14.01,2013-01-07 08:30:00,
2013-01-07 00:31:00,42.8,42.8,30.12,WNW,292,3.0,5.0,100,0.00,,CLR,0.00,VWS V14.01,2013-01-07 08:31:00,
2013-01-07 00:36:00,42.6,42.6,30.12,WNW,290,6.0,8.0,100,0.00,,CLR,0.00,VWS V14.01,2013-01-07 08:36:00,
2013-01-07 00:41:00,42.6,42.6,30.12,North,7,4.0,12.0,100,0.00,,CLR,0.00,VWS V14.01,2013-01-07 08:41:00,
2013-01-07 00:45:00,42.6,42.6,30.12,NW,320,3.0,12.0,100,0.00,,CLR,0.00,VWS V14.01,2013-01-07 08:45:00,
2013-01-07 00:46:00,42.6,42.6,30.12,West,272,2.0,3.0,100,0.00,,CLR,0.00,VWS V14.01,2013-01-07 08:46:00,
2013-01-07 00:51:00,42.8,42.8,30.12,NNW,333,3.0,10.0,100,0.00,,CLR,0.00,VWS V14.01,2013-01-07 08:51:00,
2013-01-07 00:56:00,42.8,42.8,30.12,NE,39,0.0,11.0,100,0.01,,CLR,0.01,VWS V14.01,2013-01-07 08:56:00,
2013-01-07 01:00:00,42.8,42.8,30.11,West,279,4.0,11.0,100,0.01,,CLR,0.01,VWS V14.01,2013-01-07 09:00:00,
2013-01-07 01:01:00,42.6,42.6,30.11,NNW,339,4.0,4.0,100,0.01,,CLR,0.01,VWS V14.01,2013-01-07 09:01:00,
2013-01-07 01:06:00,42.6,42.6,30.11,NNW,327,0.0,9.0,100,0.01,,CLR,0.01,VWS V14.01,2013-01-07 09:06:00,
2013-01-07 01:11:00,42.6,42.6,30.11,East,82,0.0,9.0,100,0.01,,CLR,0.01,VWS V14.01,2013-01-07 09:11:00,
2013-01-07 01:15:00,42.6,42.6,30.12,NNW,340,2.0,10.0,100,0.01,,CLR,0.01,VWS V14.01,2013-01-07 09:15:00,
2013-01-07 01:16:00,42.8,42.8,30.12,WNW,296,1.0,5.0,100,0.01,,CLR,0.01,VWS V14.01,2013-01-07 09:16:00,
2013-01-07 01:21:00,42.6,42.6,30.12,NNW,339,3.0,11.0,100,0.01,,CLR,0.01,VWS V14.01,2013-01-07 09:21:00,
2013-01-07 01:26:00,42.8,42.8,30.12,WNW,287,3.0,11.0,100,0.01,,CLR,0.01,VWS V14.01,2013-01-07 09:26:00,
2013-01-07 01:30:00,42.9,42.9,30.12,NNW,343,1.0,11.0,100,0.01,,CLR,0.01,VWS V14.01,2013-01-07 09:30:00,
2013-01-07 01:31:00,42.9,42.9,30.12,NW,313,4.0,4.0,100,0.01,,CLR,0.01,VWS V14.01,2013-01-07 09:31:00,
2013-01-07 01:36:00,43.1,43.1,30.12,WNW,287,3.0,9.0,100,0.01,,CLR,0.01,VWS V14.01,2013-01-07 09:36:00,
2013-01-07 01:41:00,43.1,43.1,30.12,NW,320,2.0,9.0,100,0.01,,CLR,0.01,VWS V14.01,2013-01-07 09:41:00,
2013-01-07 01:45:00,42.9,42.9,30.12,North,350,2.0,9.0,100,0.01,,CLR,0.01,VWS V14.01,2013-01-07 09:45:00,
2013-01-07 01:46:00,43.1,43.1,30.12,NE,36,4.0,4.0,100,0.01,,CLR,0.01,VWS V14.01,2013-01-07 09:46:00,
2013-01-07 01:51:00,42.9,42.9,30.12,NNE,33,3.0,16.0,100,0.01,,CLR,0.01,VWS V14.01,2013-01-07 09:51:00,
2013-01-07 01:56:00,43.1,43.1,30.12,NE,46,1.0,16.0,100,0.01,,CLR,0.01,VWS V14.01,2013-01-07 09:56:00,
2013-01-07 02:00:00,42.9,42.9,30.12,North,355,3.0,16.0,100,0.01,,CLR,0.01,VWS V14.01,2013-01-07 10:00:00,
2013-01-07 02:01:00,42.9,42.9,30.12,NNE,15,1.0,4.0,100,0.00,,CLR,0.01,VWS V14.01,2013-01-07 10:01:00,
2013-01-07 02:06:00,42.9,42.9,30.12,NNE,32,2.0,10.0,100,0.00,,CLR,0.01,VWS V14.01,2013-01-07 10:06:00,
2013-01-07 02:11:00,43.1,43.1,30.12,North,350,9.0,11.0,100,0.00,,CLR,0.01,VWS V14.01,2013-01-07 10:11:00,
2013-01-07 02:15:00,43.2,43.2,30.12,NNE,20,2.0,11.0,100,0.00,,CLR,0.01,VWS V14.01,2013-01-07 10:15:00,
2013-01-07 02:16:00,43.2,43.2,30.12,NNE,31,2.0,2.0,100,0.00,,CLR,0.01,VWS V14.01,2013-01-07 10:16:00,
2013-01-07 02:21:00,43.1,43.1,30.12,NNW,333,1.0,7.0,100,0.00,,CLR,0.01,VWS V14.01,2013-01-07 10:21:00,
2013-01-07 02:26:00,43.2,43.2,30.12,NNW,345,3.0,10.0,100,0.00,,CLR,0.01,VWS V14.01,2013-01-07 10:26:00,
2013-01-07 02:30:00,43.3,43.3,30.11,North,353,3.0,10.0,100,0.00,,CLR,0.01,VWS V14.01,2013-01-07 10:30:00,
2013-01-07 02:31:00,43.3,43.3,30.11,North,354,3.0,3.0,100,0.00,,CLR,0.01,VWS V14.01,2013-01-07 10:31:00,
2013-01-07 02:36:00,43.3,43.3,30.11,NNW,344,9.0,11.0,100,0.00,,CLR,0.01,VWS V14.01,2013-01-07 10:36:00,
2013-01-07 02:41:00,43.3,43.3,30.11,North,2,4.0,11.0,100,0.00,,CLR,0.01,VWS V14.01,2013-01-07 10:41:00,
2013-01-07 02:45:00,43.3,43.3,30.12,WNW,297,2.0,11.0,100,0.00,,CLR,0.01,VWS V14.01,2013-01-07 10:45:00,
2013-01-07 02:46:00,43.3,43.3,30.12,WNW,297,0.0,2.0,100,0.00,,CLR,0.01,VWS V14.01,2013-01-07 10:46:00,
2013-01-07 02:51:00,43.2,43.2,30.12,North,349,1.0,11.0,100,0.00,,CLR,0.01,VWS V14.01,2013-01-07 10:51:00,
2013-01-07 02:56:00,43.2,43.2,30.12,NNW,332,2.0,11.0,100,0.00,,CLR,0.01,VWS V14.01,2013-01-07 10:56:00,
2013-01-07 03:00:00,43.2,43.2,30.12,North,355,3.0,11.0,100,0.00,,CLR,0.01,VWS V14.01,2013-01-07 11:00:00,
2013-01-07 03:01:00,43.2,43.2,30.12,NE,47,1.0,3.0,100,0.00,,CLR,0.01,VWS V14.01,2013-01-07 11:01:00,
2013-01-07 03:06:00,43.2,43.2,30.12,WNW,284,2.0,10.0,100,0.00,,CLR,0.01,VWS V14.01,2013-01-07 11:06:00,
2013-01-07 03:11:00,43.2,43.2,30.12,NNE,25,0.0,10.0,100,0.00,,CLR,0.01,VWS V14.01,2013-01-07 11:11:00,
2013-01-07 03:15:00,43.2,43.2,30.13,North,358,4.0,11.0,100,0.00,,CLR,0.01,VWS V14.01,2013-01-07 11:15:00,
2013-01-07 03:16:00,43.2,43.2,30.13,WNW,294,2.0,4.0,100,0.00,,CLR,0.01,VWS V14.01,2013-01-07 11:16:00,
2013-01-07 03:21:00,43.1,43.1,30.13,NNE,20,3.0,7.0,100,0.00,,CLR,0.01,VWS V14.01,2013-01-07 11:21:00,
2013-01-07 03:26:00,43.2,43.2,30.13,NW,312,6.0,7.0,100,0.00,,CLR,0.01,VWS V14.01,2013-01-07 11:26:00,
2013-01-07 03:30:00,43.2,43.2,30.14,WNW,285,0.0,7.0,100,0.00,,CLR,0.01,VWS V14.01,2013-01-07 11:30:00,
2013-01-07 03:31:00,43.3,43.3,30.14,WNW,285,1.0,1.0,100,0.00,,CLR,0.01,VWS V14.01,2013-01-07 11:31:00,
2013-01-07 03:36:00,43.3,43.3,30.14,NW,317,2.0,10.0,100,0.00,,CLR,0.01,VWS V14.01,2013-01-07 11:36:00,
2013-01-07 03:41:00,43.5,43.5,30.14,NW,325,3.0,10.0,100,0.00,,CLR,0.01,VWS V14.01,2013-01-07 11:41:00,
2013-01-07 03:45:00,43.5,43.2,30.14,NW,325,4.0,10.0,99,0.00,,CLR,0.01,VWS V14.01,2013-01-07 11:45:00,
2013-01-07 03:46:00,43.5,43.2,30.14,NW,319,0.0,4.0,99,0.00,,CLR,0.01,VWS V14.01,2013-01-07 11:46:00,
2013-01-07 03:51:00,43.3,43.0,30.14,NNW,337,1.0,4.0,99,0.00,,CLR,0.01,VWS V14.01,2013-01-07 11:51:00,
2013-01-07 03:56:00,43.5,43.2,30.14,NNW,331,3.0,7.0,99,0.00,,CLR,0.01,VWS V14.01,2013-01-07 11:56:00,
2013-01-07 04:00:00,43.5,43.0,30.13,West,259,4.0,9.0,98,0.00,,CLR,0.01,VWS V14.01,2013-01-07 12:00:00,
2013-01-07 04:01:00,43.5,43.0,30.13,WSW,241,0.0,4.0,98,0.00,,CLR,0.01,VWS V14.01,2013-01-07 12:01:00,
2013-01-07 04:06:00,43.5,43.0,30.13,WNW,299,9.0,9.0,98,0.00,,CLR,0.01,VWS V14.01,2013-01-07 12:06:00,
2013-01-07 04:11:00,43.5,42.7,30.13,West,281,2.0,10.0,97,0.00,,CLR,0.01,VWS V14.01,2013-01-07 12:11:00,
2013-01-07 04:15:00,43.5,42.7,30.13,North,356,1.0,13.0,97,0.00,,CLR,0.01,VWS V14.01,2013-01-07 12:15:00,
2013-01-07 04:16:00,43.5,42.7,30.13,West,274,9.0,9.0,97,0.00,,CLR,0.01,VWS V14.01,2013-01-07 12:16:00,
2013-01-07 04:21:00,43.5,42.7,30.13,NW,304,1.0,9.0,97,0.00,,CLR,0.01,VWS V14.01,2013-01-07 12:21:00,
2013-01-07 04:26:00,43.3,42.5,30.13,NNW,341,7.0,13.0,97,0.00,,CLR,0.01,VWS V14.01,2013-01-07 12:26:00,
2013-01-07 04:30:00,43.3,42.5,30.14,West,277,8.0,13.0,97,0.00,,CLR,0.01,VWS V14.01,2013-01-07 12:30:00,
2013-01-07 04:31:00,43.3,42.8,30.14,WNW,294,3.0,8.0,98,0.00,,CLR,0.01,VWS V14.01,2013-01-07 12:31:00,
2013-01-07 04:36:00,43.2,42.4,30.14,WSW,253,2.0,8.0,97,0.00,,CLR,0.01,VWS V14.01,2013-01-07 12:36:00,
2013-01-07 04:41:00,42.9,42.1,30.14,North,11,2.0,8.0,97,0.00,,CLR,0.01,VWS V14.01,2013-01-07 12:41:00,
2013-01-07 04:45:00,42.9,42.1,30.14,NNW,345,2.0,8.0,97,0.00,,CLR,0.01,VWS V14.01,2013-01-07 12:45:00,
2013-01-07 04:46:00,42.9,42.1,30.14,NNW,341,2.0,3.0,97,0.00,,CLR,0.01,VWS V14.01,2013-01-07 12:46:00,
2013-01-07 04:51:00,42.9,42.4,30.14,NE,36,4.0,9.0,98,0.00,,CLR,0.01,VWS V14.01,2013-01-07 12:51:00,
2013-01-07 04:56:00,42.8,42.0,30.14,WNW,285,3.0,9.0,97,0.00,,CLR,0.01,VWS V14.01,2013-01-07 12:56:00,
2013-01-07 05:00:00,42.5,41.7,30.15,North,3,1.0,9.0,97,0.00,,CLR,0.01,VWS V14.01,2013-01-07 13:00:00,
2013-01-07 05:01:00,42.5,42.0,30.15,West,280,3.0,3.0,98,0.00,,CLR,0.01,VWS V14.01,2013-01-07 13:01:00,
2013-01-07 05:06:00,42.3,41.8,30.15,North,353,0.0,5.0,98,0.00,,CLR,0.01,VWS V14.01,2013-01-07 13:06:00,
2013-01-07 05:11:00,42.3,41.8,30.15,WNW,301,0.0,7.0,98,0.00,,CLR,0.01,VWS V14.01,2013-01-07 13:11:00,
2013-01-07 05:15:00,42.3,41.8,30.16,North,353,3.0,7.0,98,0.00,,CLR,0.01,VWS V14.01,2013-01-07 13:15:00,
2013-01-07 05:16:00,42.3,41.8,30.16,North,358,2.0,3.0,98,0.00,,CLR,0.01,VWS V14.01,2013-01-07 13:16:00,
2013-01-07 05:21:00,42.5,42.0,30.16,NNW,343,3.0,6.0,98,0.00,,CLR,0.01,VWS V14.01,2013-01-07 13:21:00,
2013-01-07 05:26:00,42.5,42.0,30.16,North,360,2.0,6.0,98,0.00,,CLR,0.01,VWS V14.01,2013-01-07 13:26:00,
2013-01-07 05:30:00,42.5,41.7,30.15,WNW,285,3.0,6.0,97,0.00,,CLR,0.01,VWS V14.01,2013-01-07 13:30:00,
2013-01-07 05:31:00,42.5,42.0,30.15,WNW,303,3.0,3.0,98,0.00,,CLR,0.01,VWS V14.01,2013-01-07 13:31:00,
2013-01-07 05:36:00,42.3,41.5,30.15,NW,306,5.0,6.0,97,0.00,,CLR,0.01,VWS V14.01,2013-01-07 13:36:00,
2013-01-07 05:41:00,42.5,41.7,30.15,NNW,339,0.0,6.0,97,0.00,,CLR,0.01,VWS V14.01,2013-01-07 13:41:00,
2013-01-07 05:45:00,42.6,42.1,30.14,NNW,339,7.0,7.0,98,0.00,,CLR,0.01,VWS V14.01,2013-01-07 13:45:00,
2013-01-07 05:46:00,42.6,42.1,30.14,North,359,2.0,7.0,98,0.00,,CLR,0.01,VWS V14.01,2013-01-07 13:46:00,
2013-01-07 05:51:00,42.9,42.1,30.14,WNW,303,2.0,7.0,97,0.00,,CLR,0.01,VWS V14.01,2013-01-07 13:51:00,
2013-01-07 05:56:00,43.2,42.4,30.14,NNE,15,6.0,7.0,97,0.00,,CLR,0.01,VWS V14.01,2013-01-07 13:56:00,
2013-01-07 06:00:00,43.5,42.4,30.14,North,2,3.0,7.0,96,0.00,,CLR,0.01,VWS V14.01,2013-01-07 14:00:00,
2013-01-07 06:01:00,43.5,42.4,30.14,North,351,3.0,3.0,96,0.00,,CLR,0.01,VWS V14.01,2013-01-07 14:01:00,
2013-01-07 06:06:00,43.6,42.3,30.14,North,11,0.0,6.0,95,0.00,,CLR,0.01,VWS V14.01,2013-01-07 14:06:00,
2013-01-07 06:11:00,43.8,42.5,30.14,NNE,33,7.0,7.0,95,0.00,,CLR,0.01,VWS V14.01,2013-01-07 14:11:00,
2013-01-07 06:15:00,43.8,42.2,30.15,NNE,15,2.0,7.0,94,0.00,,CLR,0.01,VWS V14.01,2013-01-07 14:15:00,
2013-01-07 06:16:00,43.8,42.2,30.15,WSW,248,2.0,3.0,94,0.00,,CLR,0.01,VWS V14.01,2013-01-07 14:16:00,
2013-01-07 06:21:00,43.6,42.0,30.15,NNW,345,1.0,4.0,94,0.00,,CLR,0.01,VWS V14.01,2013-01-07 14:21:00,
2013-01-07 06:26:00,43.5,41.6,30.15,North,1,1.0,6.0,93,0.00,,CLR,0.01,VWS V14.01,2013-01-07 14:26:00,
2013-01-07 06:30:00,43.5,41.6,30.15,WNW,299,0.0,6.0,93,0.00,,CLR,0.01,VWS V14.01,2013-01-07 14:30:00,
2013-01-07 06:31:00,43.5,41.6,30.15,WNW,299,0.0,0.0,93,0.00,,CLR,0.01,VWS V14.01,2013-01-07 14:31:00,
2013-01-07 06:36:00,43.8,41.6,30.15,NNW,343,2.0,3.0,92,0.00,,CLR,0.01,VWS V14.01,2013-01-07 14:36:00,
2013-01-07 06:41:00,43.9,41.5,30.15,NNW,345,2.0,3.0,91,0.00,,CLR,0.01,VWS V14.01,2013-01-07 14:41:00,
2013-01-07 06:45:00,43.5,41.3,30.16,WNW,295,2.0,3.0,92,0.00,,CLR,0.01,VWS V14.01,2013-01-07 14:45:00,
2013-01-07 06:46:00,43.5,41.3,30.16,WNW,296,2.0,2.0,92,0.00,,CLR,0.01,VWS V14.01,2013-01-07 14:46:00,
2013-01-07 06:51:00,42.9,41.0,30.16,WNW,296,0.0,2.0,93,0.00,,CLR,0.01,VWS V14.01,2013-01-07 14:51:00,
2013-01-07 06:56:00,42.5,40.9,30.16,WNW,295,2.0,2.0,94,0.00,,CLR,0.01,VWS V14.01,2013-01-07 14:56:00,
2013-01-07 07:00:00,42.2,40.9,30.17,SSW,200,2.0,3.0,95,0.00,,CLR,0.01,VWS V14.01,2013-01-07 15:00:00,
2013-01-07 07:01:00,42.2,40.9,30.17,SSW,200,2.0,3.0,95,0.00,,CLR,0.01,VWS V14.01,2013-01-07 15:01:00,
2013-01-07 07:06:00,42.1,41.0,30.17,SSW,200,3.0,3.0,96,0.00,,CLR,0.01,VWS V14.01,2013-01-07 15:06:00,
2013-01-07 07:11:00,41.9,40.8,30.17,SSW,200,0.0,3.0,96,0.00,,CLR,0.01,VWS V14.01,2013-01-07 15:11:00,
2013-01-07 07:15:00,41.8,41.0,30.17,SSW,199,1.0,3.0,97,0.00,,CLR,0.01,VWS V14.01,2013-01-07 15:15:00,
2013-01-07 07:16:00,41.8,41.0,30.17,SSW,199,1.0,1.0,97,0.00,,CLR,0.01,VWS V14.01,2013-01-07 15:16:00,
2013-01-07 07:21:00,41.6,40.8,30.17,SSW,199,0.0,2.0,97,0.00,,CLR,0.01,VWS V14.01,2013-01-07 15:21:00,
2013-01-07 07:26:00,41.5,40.7,30.17,SSW,199,0.0,2.0,97,0.00,,CLR,0.01,VWS V14.01,2013-01-07 15:26:00,
2013-01-07 07:30:00,41.3,40.8,30.18,SSW,199,0.0,2.0,98,0.00,,CLR,0.01,VWS V14.01,2013-01-07 15:30:00,
2013-01-07 07:31:00,41.3,40.8,30.18,SSW,199,0.0,0.0,98,0.00,,CLR,0.01,VWS V14.01,2013-01-07 15:31:00,
2013-01-07 07:36:00,41.3,40.8,30.18,SSW,199,0.0,0.0,98,0.00,,CLR,0.01,VWS V14.01,2013-01-07 15:36:00,
2013-01-07 07:41:00,41.3,40.8,30.18,SE,127,0.0,2.0,98,0.00,,CLR,0.01,VWS V14.01,2013-01-07 15:41:00,
2013-01-07 07:45:00,41.5,41.0,30.18,SE,127,2.0,2.0,98,0.00,,CLR,0.01,VWS V14.01,2013-01-07 15:45:00,
2013-01-07 07:46:00,41.5,41.2,30.18,SE,127,2.0,2.0,99,0.00,,CLR,0.01,VWS V14.01,2013-01-07 15:46:00,
2013-01-07 07:51:00,41.6,41.3,30.18,West,273,3.0,5.0,99,0.00,,CLR,0.01,VWS V14.01,2013-01-07 15:51:00,
2013-01-07 07:56:00,41.6,41.3,30.18,West,281,0.0,5.0,99,0.00,,CLR,0.01,VWS V14.01,2013-01-07 15:56:00,
2013-01-07 08:00:00,41.8,41.8,30.19,SW,230,1.0,5.0,100,0.00,,CLR,0.01,VWS V14.01,2013-01-07 16:00:00,
2013-01-07 08:01:00,41.8,41.8,30.19,SW,229,0.0,1.0,100,0.00,,CLR,0.01,VWS V14.01,2013-01-07 16:01:00,
2013-01-07 08:06:00,42.1,42.1,30.19,SW,230,1.0,1.0,100,0.00,,CLR,0.01,VWS V14.01,2013-01-07 16:06:00,
2013-01-07 08:11:00,42.2,42.2,30.19,SE,127,0.0,2.0,100,0.00,,CLR,0.01,VWS V14.01,2013-01-07 16:11:00,
2013-01-07 08:15:00,42.3,42.3,30.19,SE,127,0.0,2.0,100,0.00,,CLR,0.01,VWS V14.01,2013-01-07 16:15:00,
2013-01-07 08:16:00,42.3,42.3,30.19,SE,127,0.0,0.0,100,0.00,,CLR,0.01,VWS V14.01,2013-01-07 16:16:00,
2013-01-07 08:21:00,42.3,42.3,30.19,ESE,115,0.0,3.0,100,0.00,,CLR,0.01,VWS V14.01,2013-01-07 16:21:00,
2013-01-07 08:26:00,42.5,42.5,30.19,ESE,115,0.0,3.0,100,0.00,,CLR,0.01,VWS V14.01,2013-01-07 16:26:00,
2013-01-07 08:30:00,42.6,42.6,30.19,ESE,115,2.0,3.0,100,0.00,,CLR,0.01,VWS V14.01,2013-01-07 16:30:00,
2013-01-07 08:31:00,42.6,42.6,30.19,ESE,115,1.0,2.0,100,0.00,,CLR,0.01,VWS V14.01,2013-01-07 16:31:00,
2013-01-07 08:36:00,42.8,42.8,30.19,ESE,115,1.0,2.0,100,0.00,,CLR,0.01,VWS V14.01,2013-01-07 16:36:00,
2013-01-07 08:41:00,42.9,42.9,30.19,ESE,115,0.0,2.0,100,0.00,,CLR,0.01,VWS V14.01,2013-01-07 16:41:00,
2013-01-07 08:45:00,43.1,43.1,30.18,ESE,115,0.0,2.0,100,0.00,,CLR,0.01,VWS V14.01,2013-01-07 16:45:00,
2013-01-07 08:46:00,43.1,43.1,30.18,ESE,115,0.0,0.0,100,0.00,,CLR,0.01,VWS V14.01,2013-01-07 16:46:00,
2013-01-07 08:51:00,43.3,43.3,30.18,ESE,115,0.0,0.0,100,0.00,,CLR,0.01,VWS V14.01,2013-01-07 16:51:00,
2013-01-07 08:56:00,43.5,43.5,30.18,ESE,115,0.0,0.0,100,0.00,,CLR,0.01,VWS V14.01,2013-01-07 16:56:00,
2013-01-07 09:00:00,43.8,43.8,30.20,ESE,115,0.0,0.0,100,0.00,,CLR,0.01,VWS V14.01,2013-01-07 17:00:00,
2013-01-07 09:01:00,43.8,43.8,30.20,ESE,115,0.0,0.0,100,0.00,,CLR,0.01,VWS V14.01,2013-01-07 17:01:00,
2013-01-07 09:06:00,43.9,43.9,30.20,ESE,115,2.0,2.0,100,0.00,,CLR,0.01,VWS V14.01,2013-01-07 17:06:00,
2013-01-07 09:11:00,44.3,44.3,30.20,East,92,2.0,4.0,100,0.00,,CLR,0.01,VWS V14.01,2013-01-07 17:11:00,
2013-01-07 09:15:00,44.3,44.3,30.19,East,92,0.0,4.0,100,0.00,,CLR,0.01,VWS V14.01,2013-01-07 17:15:00,
2013-01-07 09:16:00,44.3,44.3,30.19,East,92,0.0,0.0,100,0.00,,CLR,0.01,VWS V14.01,2013-01-07 17:16:00,
2013-01-07 09:21:00,44.3,44.3,30.19,East,92,0.0,1.0,100,0.00,,CLR,0.01,VWS V14.01,2013-01-07 17:21:00,
2013-01-07 09:26:00,44.5,44.5,30.19,East,92,0.0,1.0,100,0.00,,CLR,0.01,VWS V14.01,2013-01-07 17:26:00,
2013-01-07 09:30:00,44.6,44.6,30.20,East,92,1.0,2.0,100,0.00,,CLR,0.01,VWS V14.01,2013-01-07 17:30:00,
2013-01-07 09:31:00,44.6,44.6,30.20,East,92,0.0,1.0,100,0.00,,CLR,0.01,VWS V14.01,2013-01-07 17:31:00,
2013-01-07 09:36:00,44.8,44.8,30.20,East,92,0.0,1.0,100,0.00,,CLR,0.01,VWS V14.01,2013-01-07 17:36:00,
2013-01-07 09:41:00,44.9,44.9,30.20,East,92,1.0,3.0,100,0.00,,CLR,0.01,VWS V14.01,2013-01-07 17:41:00,
2013-01-07 09:45:00,44.9,44.9,30.21,East,92,2.0,3.0,100,0.00,,CLR,0.01,VWS V14.01,2013-01-07 17:45:00,
2013-01-07 09:46:00,44.9,44.9,30.21,East,92,1.0,2.0,100,0.00,,CLR,0.01,VWS V14.01,2013-01-07 17:46:00,
2013-01-07 09:51:00,44.8,44.8,30.21,NNE,15,0.0,3.0,100,0.00,,CLR,0.01,VWS V14.01,2013-01-07 17:51:00,
2013-01-07 09:56:00,44.9,44.9,30.21,NNE,15,0.0,3.0,100,0.00,,CLR,0.01,VWS V14.01,2013-01-07 17:56:00,
2013-01-07 10:00:00,45.2,45.2,30.21,NNE,15,0.0,3.0,100,0.00,,CLR,0.01,VWS V14.01,2013-01-07 18:00:00,
2013-01-07 10:01:00,45.2,45.2,30.21,NNE,15,0.0,0.0,100,0.00,,CLR,0.01,VWS V14.01,2013-01-07 18:01:00,
2013-01-07 10:06:00,45.7,45.7,30.21,NNE,15,0.0,1.0,100,0.00,,CLR,0.01,VWS V14.01,2013-01-07 18:06:00,
2013-01-07 10:11:00,45.7,45.7,30.21,WSW,241,2.0,3.0,100,0.00,,CLR,0.01,VWS V14.01,2013-01-07 18:11:00,
2013-01-07 10:15:00,45.4,45.1,30.21,WSW,240,0.0,3.0,99,0.00,,CLR,0.01,VWS V14.01,2013-01-07 18:15:00,
2013-01-07 10:16:00,45.4,45.1,30.21,WSW,240,1.0,1.0,99,0.00,,CLR,0.01,VWS V14.01,2013-01-07 18:16:00,
2013-01-07 10:21:00,45.2,44.9,30.21,WSW,240,1.0,3.0,99,0.00,,CLR,0.01,VWS V14.01,2013-01-07 18:21:00,
2013-01-07 10:26:00,45.2,44.9,30.21,WSW,240,1.0,3.0,99,0.00,,CLR,0.01,VWS V14.01,2013-01-07 18:26:00,
2013-01-07 10:30:00,46.0,45.7,30.20,West,266,3.0,4.0,99,0.00,,CLR,0.01,VWS V14.01,2013-01-07 18:30:00,
2013-01-07 10:31:00,46.2,45.9,30.20,West,266,1.0,3.0,99,0.00,,CLR,0.01,VWS V14.01,2013-01-07 18:31:00,
2013-01-07 10:36:00,47.7,47.4,30.20,West,266,0.0,3.0,99,0.00,,CLR,0.01,VWS V14.01,2013-01-07 18:36:00,
2013-01-07 10:41:00,48.8,47.4,30.20,West,272,3.0,3.0,95,0.00,,CLR,0.01,VWS V14.01,2013-01-07 18:41:00,
2013-01-07 10:45:00,49.8,47.3,30.18,WNW,289,0.0,4.0,91,0.00,,CLR,0.01,VWS V14.01,2013-01-07 18:45:00,
2013-01-07 10:46:00,49.8,47.3,30.18,WNW,289,0.0,0.0,91,0.00,,CLR,0.01,VWS V14.01,2013-01-07 18:46:00,
2013-01-07 10:51:00,49.9,47.7,30.18,NW,318,4.0,4.0,92,0.00,,CLR,0.01,VWS V14.01,2013-01-07 18:51:00,
2013-01-07 10:56:00,50.5,47.4,30.18,NW,315,0.0,4.0,89,0.00,,CLR,0.01,VWS V14.01,2013-01-07 18:56:00,
2013-01-07 11:00:00,49.9,46.2,30.18,North,349,0.0,6.0,87,0.00,,CLR,0.01,VWS V14.01,2013-01-07 19:00:00,
2013-01-07 11:01:00,49.8,46.1,30.18,North,349,1.0,1.0,87,0.00,,CLR,0.01,VWS V14.01,2013-01-07 19:01:00,
2013-01-07 11:06:00,51.0,47.9,30.18,NW,310,2.0,5.0,89,0.00,,CLR,0.01,VWS V14.01,2013-01-07 19:06:00,
2013-01-07 11:11:00,50.4,47.0,30.18,WSW,254,2.0,5.0,88,0.00,,CLR,0.01,VWS V14.01,2013-01-07 19:11:00,
2013-01-07 11:15:00,49.4,46.6,30.19,SW,227,1.0,5.0,90,0.00,,CLR,0.01,VWS V14.01,2013-01-07 19:15:00,
2013-01-07 11:16:00,49.6,48.0,30.19,WSW,246,3.0,3.0,94,0.00,,CLR,0.01,VWS V14.01,2013-01-07 19:16:00,
2013-01-07 11:21:00,48.5,46.0,30.19,WSW,254,2.0,4.0,91,0.00,,CLR,0.01,VWS V14.01,2013-01-07 19:21:00,
2013-01-07 11:26:00,49.4,47.8,30.19,NNE,25,0.0,4.0,94,0.00,,CLR,0.01,VWS V14.01,2013-01-07 19:26:00,
2013-01-07 11:30:00,50.7,46.4,30.18,West,263,7.0,7.0,85,0.00,,CLR,0.01,VWS V14.01,2013-01-07 19:30:00,
2013-01-07 11:31:00,50.7,46.4,30.18,NNW,345,2.0,7.0,85,0.00,,CLR,0.01,VWS V14.01,2013-01-07 19:31:00,
2013-01-07 11:36:00,51.4,46.4,30.18,North,7,4.0,7.0,83,0.00,,CLR,0.01,VWS V14.01,2013-01-07 19:36:00,
2013-01-07 11:41:00,52.9,48.5,30.18,NW,308,4.0,7.0,85,0.00,,CLR,0.01,VWS V14.01,2013-01-07 19:41:00,
2013-01-07 11:45:00,53.8,48.4,30.16,West,278,3.0,7.0,82,0.00,,CLR,0.01,VWS V14.01,2013-01-07 19:45:00,
2013-01-07 11:46:00,53.8,47.1,30.16,West,280,3.0,3.0,78,0.00,,CLR,0.01,VWS V14.01,2013-01-07 19:46:00,
2013-01-07 11:51:00,53.6,46.2,30.16,North,9,2.0,5.0,76,0.00,,CLR,0.01,VWS V14.01,2013-01-07 19:51:00,
2013-01-07 11:56:00,53.8,47.1,30.16,NW,326,4.0,5.0,78,0.00,,CLR,0.01,VWS V14.01,2013-01-07 19:56:00,
2013-01-07 12:00:00,53.9,46.9,30.14,NE,44,4.0,5.0,77,0.00,,CLR,0.01,VWS V14.01,2013-01-07 20:00:00,
2013-01-07 12:01:00,53.9,46.9,30.14,NE,44,2.0,4.0,77,0.00,,CLR,0.01,VWS V14.01,2013-01-07 20:01:00,
2013-01-07 12:06:00,54.5,48.1,30.14,WSW,251,2.0,5.0,79,0.00,,CLR,0.01,VWS V14.01,2013-01-07 20:06:00,
2013-01-07 12:11:00,55.1,49.0,30.14,West,277,2.0,5.0,80,0.00,,CLR,0.01,VWS V14.01,2013-01-07 20:11:00,
2013-01-07 12:15:00,54.8,47.7,30.13,SW,216,4.0,5.0,77,0.00,,CLR,0.01,VWS V14.01,2013-01-07 20:15:00,
2013-01-07 12:16:00,54.7,48.3,30.13,SW,221,4.0,4.0,79,0.00,,CLR,0.01,VWS V14.01,2013-01-07 20:16:00,
2013-01-07 12:19:00,54.2,48.5,30.13,SW,221,2.0,4.0,81,0.00,,CLR,0.01,VWS V14.01,2013-01-07 20:19:00,
2013-01-07 12:24:00,55.1,49.7,30.13,WSW,239,2.0,5.0,82,0.00,,CLR,0.01,VWS V14.01,2013-01-07 20:24:00,
2013-01-07 12:29:00,54.4,49.3,30.13,WSW,244,5.0,5.0,83,0.00,,CLR,0.01,VWS V14.01,2013-01-07 20:29:00,
2013-01-07 12:30:00,54.1,49.4,30.14,WSW,242,2.0,5.0,84,0.00,,CLR,0.01,VWS V14.01,2013-01-07 20:30:00,
2013-01-07 12:34:00,54.5,49.1,30.14,West,267,5.0,6.0,82,0.00,,CLR,0.01,VWS V14.01,2013-01-07 20:34:00,
2013-01-07 12:39:00,54.7,50.3,30.14,West,261,0.0,6.0,85,0.00,,CLR,0.01,VWS V14.01,2013-01-07 20:39:00,
2013-01-07 12:44:00,54.5,47.8,30.14,SE,141,0.0,6.0,78,0.00,,CLR,0.01,VWS V14.01,2013-01-07 20:44:00,
2013-01-07 12:45:00,54.8,48.4,30.12,SE,142,0.0,6.0,79,0.00,,CLR,0.01,VWS V14.01,2013-01-07 20:45:00,
2013-01-07 12:49:00,55.4,48.3,30.12,WSW,258,2.0,4.0,77,0.00,,CLR,0.01,VWS V14.01,2013-01-07 20:49:00,
2013-01-07 12:54:00,55.9,48.8,30.12,West,269,4.0,4.0,77,0.00,,CLR,0.01,VWS V14.01,2013-01-07 20:54:00,
2013-01-07 12:59:00,56.3,50.5,30.12,SSW,195,0.0,5.0,81,0.00,,CLR,0.01,VWS V14.01,2013-01-07 20:59:00,
2013-01-07 13:00:00,56.3,48.5,30.12,SSE,167,2.0,5.0,75,0.00,,CLR,0.01,VWS V14.01,2013-01-07 21:00:00,
2013-01-07 13:04:00,56.2,49.1,30.12,SW,220,3.0,5.0,77,0.00,,CLR,0.01,VWS V14.01,2013-01-07 21:04:00,
2013-01-07 13:09:00,57.2,51.4,30.12,SE,139,2.0,5.0,81,0.00,,CLR,0.01,VWS V14.01,2013-01-07 21:09:00,
2013-01-07 13:14:00,57.6,51.1,30.12,WNW,301,2.0,5.0,79,0.00,,CLR,0.01,VWS V14.01,2013-01-07 21:14:00,
2013-01-07 13:15:00,57.5,49.7,30.12,NW,310,3.0,5.0,75,0.00,,CLR,0.01,VWS V14.01,2013-01-07 21:15:00,
2013-01-07 13:19:00,57.0,47.7,30.12,NW,318,3.0,4.0,71,0.00,,CLR,0.01,VWS V14.01,2013-01-07 21:19:00,
2013-01-07 13:24:00,57.6,49.8,30.12,NW,322,4.0,7.0,75,0.00,,CLR,0.01,VWS V14.01,2013-01-07 21:24:00,
2013-01-07 13:29:00,57.8,49.9,30.12,NE,41,0.0,7.0,75,0.00,,CLR,0.01,VWS V14.01,2013-01-07 21:29:00,
2013-01-07 13:30:00,57.2,48.6,30.12,NNW,332,4.0,7.0,73,0.00,,CLR,0.01,VWS V14.01,2013-01-07 21:30:00,
2013-01-07 13:34:00,56.9,48.3,30.12,NE,51,1.0,5.0,73,0.00,,CLR,0.01,VWS V14.01,2013-01-07 21:34:00,
2013-01-07 13:39:00,56.9,49.1,30.12,East,90,0.0,5.0,75,0.00,,CLR,0.01,VWS V14.01,2013-01-07 21:39:00,
2013-01-07 13:44:00,56.7,50.3,30.12,WSW,239,5.0,5.0,79,0.00,,CLR,0.01,VWS V14.01,2013-01-07 21:44:00,
2013-01-07 13:45:00,56.7,50.3,30.11,South,170,3.0,5.0,79,0.00,,CLR,0.01,VWS V14.01,2013-01-07 21:45:00,
2013-01-07 13:49:00,56.7,50.9,30.11,SSE,152,0.0,3.0,81,0.00,,CLR,0.01,VWS V14.01,2013-01-07 21:49:00,
2013-01-07 13:54:00,56.9,50.5,30.11,ESE,116,3.0,3.0,79,0.00,,CLR,0.01,VWS V14.01,2013-01-07 21:54:00,
2013-01-07 13:59:00,56.0,50.6,30.11,ESE,116,1.0,4.0,82,0.00,,CLR,0.01,VWS V14.01,2013-01-07 21:59:00,
2013-01-07 14:00:00,55.7,49.6,30.11,ESE,116,0.0,4.0,80,0.00,,CLR,0.01,VWS V14.01,2013-01-07 22:00:00,
2013-01-07 14:04:00,55.6,49.2,30.11,ESE,108,0.0,3.0,79,0.00,,CLR,0.01,VWS V14.01,2013-01-07 22:04:00,
2013-01-07 14:09:00,55.1,49.7,30.11,East,89,4.0,4.0,82,0.00,,CLR,0.01,VWS V14.01,2013-01-07 22:09:00,
2013-01-07 14:14:00,54.4,49.3,30.11,North,7,2.0,5.0,83,0.00,,CLR,0.01,VWS V14.01,2013-01-07 22:14:00,
2013-01-07 14:15:00,54.5,49.8,30.11,West,264,1.0,5.0,84,0.00,,CLR,0.01,VWS V14.01,2013-01-07 22:15:00,
2013-01-07 14:19:00,54.8,49.1,30.11,NNE,33,3.0,4.0,81,0.00,,CLR,0.01,VWS V14.01,2013-01-07 22:19:00,
2013-01-07 14:24:00,54.8,48.8,30.11,NNE,33,0.0,4.0,80,0.00,,CLR,0.01,VWS V14.01,2013-01-07 22:24:00,
2013-01-07 14:29:00,55.0,48.6,30.11,NE,36,5.0,5.0,79,0.00,,CLR,0.01,VWS V14.01,2013-01-07 22:29:00,
2013-01-07 14:30:00,54.8,48.4,30.10,NE,50,1.0,5.0,79,0.00,,CLR,0.01,VWS V14.01,2013-01-07 22:30:00,
2013-01-07 14:34:00,54.8,48.8,30.10,North,6,4.0,4.0,80,0.00,,CLR,0.01,VWS V14.01,2013-01-07 22:34:00,
2013-01-07 14:39:00,54.8,48.4,30.10,NNE,25,1.0,4.0,79,0.00,,CLR,0.01,VWS V14.01,2013-01-07 22:39:00,
2013-01-07 14:44:00,54.8,48.4,30.10,North,3,1.0,4.0,79,0.00,,CLR,0.01,VWS V14.01,2013-01-07 22:44:00,
2013-01-07 14:45:00,54.8,48.4,30.10,ENE,76,6.0,6.0,79,0.00,,CLR,0.01,VWS V14.01,2013-01-07 22:45:00,
2013-01-07 14:49:00,54.8,49.1,30.11,NNW,340,4.0,6.0,81,0.00,,CLR,0.01,VWS V14.01,2013-01-07 22:49:00,
2013-01-07 14:54:00,54.5,47.8,30.11,North,8,1.0,7.0,78,0.00,,CLR,0.01,VWS V14.01,2013-01-07 22:54:00,
2013-01-07 14:59:00,54.5,47.8,30.11,NNE,25,2.0,7.0,78,0.00,,CLR,0.01,VWS V14.01,2013-01-07 22:59:00,
2013-01-07 15:00:00,54.7,48.0,30.11,North,4,3.0,7.0,78,0.00,,CLR,0.01,VWS V14.01,2013-01-07 23:00:00,
2013-01-07 15:04:00,54.7,47.6,30.11,NW,321,3.0,4.0,77,0.00,,CLR,0.01,VWS V14.01,2013-01-07 23:04:00,
2013-01-07 15:09:00,54.8,47.7,30.11,North,358,2.0,7.0,77,0.00,,CLR,0.01,VWS V14.01,2013-01-07 23:09:00,
2013-01-07 15:14:00,55.0,47.9,30.11,North,1,0.0,7.0,77,0.00,,CLR,0.01,VWS V14.01,2013-01-07 23:14:00,
2013-01-07 15:15:00,55.0,47.6,30.11,NNW,347,0.0,7.0,76,0.00,,CLR,0.01,VWS V14.01,2013-01-07 23:15:00,
2013-01-07 15:19:00,55.0,47.9,30.11,NNW,343,4.0,5.0,77,0.00,,CLR,0.01,VWS V14.01,2013-01-07 23:19:00,
2013-01-07 15:25:00,54.8,47.7,30.11,NNW,341,2.0,5.0,77,0.00,,CLR,0.01,VWS V14.01,2013-01-07 23:25:00,
2013-01-07 15:30:00,54.8,48.1,30.11,North,4,3.0,5.0,78,0.00,,CLR,0.01,VWS V14.01,2013-01-07 23:30:00,
2013-01-07 15:35:00,54.8,48.1,30.11,NE,50,1.0,6.0,78,0.00,,CLR,0.01,VWS V14.01,2013-01-07 23:35:00,
2013-01-07 15:40:00,54.5,47.8,30.11,NE,51,2.0,8.0,78,0.00,,CLR,0.01,VWS V14.01,2013-01-07 23:40:00,
2013-01-07 15:45:00,54.5,47.8,30.11,NE,49,4.0,8.0,78,0.00,,CLR,0.01,VWS V14.01,2013-01-07 23:45:00,
2013-01-07 15:50:00,54.4,48.0,30.11,NE,37,3.0,5.0,79,0.00,,CLR,0.01,VWS V14.01,2013-01-07 23:50:00,
2013-01-07 15:55:00,54.2,47.8,30.11,NE,48,2.0,5.0,79,0.00,,CLR,0.01,VWS V14.01,2013-01-07 23:55:00,
2013-01-07 16:00:00,54.2,47.8,30.11,NNE,25,2.0,5.0,79,0.00,,CLR,0.01,VWS V14.01,2013-01-08 00:00:00,
2013-01-07 16:05:00,54.2,47.2,30.10,North,2,2.0,4.0,77,0.00,,CLR,0.01,VWS V14.01,2013-01-08 00:05:00,
2013-01-07 16:10:00,54.4,47.3,30.10,North,2,0.0,4.0,77,0.00,,CLR,0.01,VWS V14.01,2013-01-08 00:10:00,
2013-01-07 16:15:00,54.4,47.3,30.10,North,2,0.0,4.0,77,0.00,,CLR,0.01,VWS V14.01,2013-01-08 00:15:00,
2013-01-07 16:20:00,54.2,46.8,30.11,NNW,340,4.0,8.0,76,0.00,,CLR,0.01,VWS V14.01,2013-01-08 00:20:00,
2013-01-07 16:25:00,53.8,46.4,30.11,NE,39,4.0,8.0,76,0.00,,CLR,0.01,VWS V14.01,2013-01-08 00:25:00,
2013-01-07 16:30:00,53.6,46.6,30.11,NE,43,1.0,8.0,77,0.00,,CLR,0.01,VWS V14.01,2013-01-08 00:30:00,
2013-01-07 16:35:00,53.3,47.0,30.11,NE,43,0.0,2.0,79,0.00,,CLR,0.01,VWS V14.01,2013-01-08 00:35:00,
2013-01-07 16:40:00,53.2,47.2,30.11,North,356,0.0,2.0,80,0.00,,CLR,0.01,VWS V14.01,2013-01-08 00:40:00,
2013-01-07 16:45:00,52.5,47.8,30.11,South,177,2.0,2.0,84,0.00,,CLR,0.01,VWS V14.01,2013-01-08 00:45:00,
2013-01-07 16:50:00,51.7,47.7,30.11,South,175,2.0,3.0,86,0.00,,CLR,0.01,VWS V14.01,2013-01-08 00:50:00,
2013-01-07 16:55:00,51.1,47.4,30.11,SSE,152,0.0,3.0,87,0.00,,CLR,0.01,VWS V14.01,2013-01-08 00:55:00,
2013-01-07 17:00:00,50.4,46.7,30.11,SSE,152,0.0,3.0,87,0.00,,CLR,0.01,VWS V14.01,2013-01-08 01:00:00,
2013-01-07 17:05:00,49.9,46.5,30.11,SSE,152,0.0,2.0,88,0.00,,CLR,0.01,VWS V14.01,2013-01-08 01:05:00,
2013-01-07 17:10:00,49.5,46.4,30.11,ESE,123,2.0,2.0,89,0.00,,CLR,0.01,VWS V14.01,2013-01-08 01:10:00,
2013-01-07 17:15:00,49.1,46.3,30.11,ESE,123,0.0,2.0,90,0.00,,CLR,0.01,VWS V14.01,2013-01-08 01:15:00,
2013-01-07 17:20:00,48.8,46.0,30.11,ESE,123,0.0,2.0,90,0.00,,CLR,0.01,VWS V14.01,2013-01-08 01:20:00,
2013-01-07 17:25:00,48.6,46.1,30.11,ESE,123,0.0,2.0,91,0.00,,CLR,0.01,VWS V14.01,2013-01-08 01:25:00,
2013-01-07 17:30:00,48.5,46.3,30.11,ESE,123,0.0,2.0,92,0.00,,CLR,0.01,VWS V14.01,2013-01-08 01:30:00,
2013-01-07 17:35:00,48.6,46.7,30.11,WNW,289,2.0,3.0,93,0.00,,CLR,0.01,VWS V14.01,2013-01-08 01:35:00,
2013-01-07 17:40:00,48.8,46.9,30.11,WNW,301,1.0,4.0,93,0.00,,CLR,0.01,VWS V14.01,2013-01-08 01:40:00,
2013-01-07 17:45:00,49.1,47.5,30.11,NNW,342,0.0,4.0,94,0.00,,CLR,0.01,VWS V14.01,2013-01-08 01:45:00,
2013-01-07 17:50:00,49.5,47.8,30.11,North,358,2.0,5.0,94,0.00,,CLR,0.01,VWS V14.01,2013-01-08 01:50:00,
2013-01-07 17:55:00,49.8,48.2,30.11,North,2,0.0,5.0,94,0.00,,CLR,0.01,VWS V14.01,2013-01-08 01:55:00,
2013-01-07 18:00:00,49.9,48.2,30.11,NNW,331,2.0,5.0,94,0.00,,CLR,0.01,VWS V14.01,2013-01-08 02:00:00,
2013-01-07 18:05:00,49.8,47.9,30.11,West,281,0.0,3.0,93,0.00,,CLR,0.01,VWS V14.01,2013-01-08 02:05:00,
2013-01-07 18:10:00,49.6,47.7,30.11,WNW,283,0.0,4.0,93,0.00,,CLR,0.01,VWS V14.01,2013-01-08 02:10:00,
2013-01-07 18:15:00,49.5,47.8,30.11,WNW,292,2.0,4.0,94,0.00,,CLR,0.01,VWS V14.01,2013-01-08 02:15:00,
2013-01-07 18:20:00,49.5,47.8,30.11,North,358,1.0,3.0,94,0.00,,CLR,0.01,VWS V14.01,2013-01-08 02:20:00,
2013-01-07 18:25:00,49.4,48.0,30.11,WNW,291,4.0,5.0,95,0.00,,CLR,0.01,VWS V14.01,2013-01-08 02:25:00,
2013-01-07 18:30:00,49.5,48.1,30.11,NNW,332,4.0,6.0,95,0.00,,CLR,0.01,VWS V14.01,2013-01-08 02:30:00,
2013-01-07 18:35:00,49.5,48.1,30.11,NW,320,2.0,5.0,95,0.00,,CLR,0.01,VWS V14.01,2013-01-08 02:35:00,
2013-01-07 18:40:00,49.6,48.2,30.11,NE,53,1.0,5.0,95,0.00,,CLR,0.01,VWS V14.01,2013-01-08 02:40:00,
2013-01-07 18:45:00,49.6,48.5,30.10,NNW,331,2.0,7.0,96,0.00,,CLR,0.01,VWS V14.01,2013-01-08 02:45:00,
2013-01-07 18:50:00,49.8,48.7,30.10,WNW,290,5.0,5.0,96,0.00,,CLR,0.01,VWS V14.01,2013-01-08 02:50:00,
2013-01-07 18:55:00,49.8,48.7,30.10,WNW,303,4.0,7.0,96,0.00,,CLR,0.01,VWS V14.01,2013-01-08 02:55:00,
2013-01-07 19:00:00,49.6,48.5,30.10,WNW,286,2.0,7.0,96,0.00,,CLR,0.01,VWS V14.01,2013-01-08 03:00:00,
2013-01-07 19:05:00,49.6,48.5,30.10,WNW,294,5.0,8.0,96,0.00,,CLR,0.01,VWS V14.01,2013-01-08 03:05:00,
2013-01-07 19:10:00,49.6,48.5,30.10,WNW,297,2.0,8.0,96,0.00,,CLR,0.01,VWS V14.01,2013-01-08 03:10:00,
2013-01-07 19:15:00,49.6,48.5,30.10,WNW,282,4.0,9.0,96,0.00,,CLR,0.01,VWS V14.01,2013-01-08 03:15:00,
2013-01-07 19:20:00,49.5,48.4,30.10,WNW,299,4.0,9.0,96,0.00,,CLR,0.01,VWS V14.01,2013-01-08 03:20:00,
2013-01-07 19:25:00,49.5,48.1,30.10,West,274,0.0,9.0,95,0.00,,CLR,0.01,VWS V14.01,2013-01-08 03:25:00,
2013-01-07 19:30:00,49.5,48.1,30.10,NW,308,0.0,9.0,95,0.00,,CLR,0.01,VWS V14.01,2013-01-08 03:30:00,
2013-01-07 19:35:00,49.6,48.0,30.10,NW,321,6.0,7.0,94,0.00,,CLR,0.01,VWS V14.01,2013-01-08 03:35:00,
2013-01-07 19:40:00,49.8,47.9,30.10,NNW,340,2.0,7.0,93,0.00,,CLR,0.01,VWS V14.01,2013-01-08 03:40:00,
2013-01-07 19:45:00,49.9,47.7,30.11,WNW,297,3.0,7.0,92,0.00,,CLR,0.01,VWS V14.01,2013-01-08 03:45:00,
2013-01-07 19:50:00,50.1,47.6,30.11,NW,316,4.0,4.0,91,0.00,,CLR,0.01,VWS V14.01,2013-01-08 03:50:00,
2013-01-07 19:55:00,50.1,47.3,30.11,NW,308,0.0,6.0,90,0.00,,CLR,0.01,VWS V14.01,2013-01-08 03:55:00,
2013-01-07 20:00:00,50.1,47.0,30.11,NNW,342,2.0,7.0,89,0.00,,CLR,0.01,VWS V14.01,2013-01-08 04:00:00,
2013-01-07 20:05:00,50.1,47.0,30.11,NW,314,0.0,7.0,89,0.00,,CLR,0.01,VWS V14.01,2013-01-08 04:05:00,
2013-01-07 20:10:00,50.2,46.8,30.11,West,280,2.0,7.0,88,0.00,,CLR,0.01,VWS V14.01,2013-01-08 04:10:00,
2013-01-07 20:15:00,50.2,46.8,30.11,NW,320,2.0,7.0,88,0.00,,CLR,0.01,VWS V14.01,2013-01-08 04:15:00,
2013-01-07 20:20:00,50.4,46.7,30.11,NNW,332,0.0,10.0,87,0.00,,CLR,0.01,VWS V14.01,2013-01-08 04:20:00,
2013-01-07 20:25:00,50.4,46.7,30.11,NNW,334,0.0,10.0,87,0.00,,CLR,0.01,VWS V14.01,2013-01-08 04:25:00,
2013-01-07 20:30:00,50.4,46.7,30.11,NW,324,4.0,10.0,87,0.00,,CLR,0.01,VWS V14.01,2013-01-08 04:30:00,
2013-01-07 20:35:00,50.5,46.8,30.11,WNW,296,4.0,5.0,87,0.00,,CLR,0.01,VWS V14.01,2013-01-08 04:35:00,
2013-01-07 20:40:00,50.4,46.7,30.11,WNW,288,2.0,5.0,87,0.00,,CLR,0.01,VWS V14.01,2013-01-08 04:40:00,
2013-01-07 20:45:00,50.4,46.7,30.11,WNW,288,2.0,5.0,87,0.00,,CLR,0.01,VWS V14.01,2013-01-08 04:45:00,
2013-01-07 20:50:00,50.4,46.7,30.11,NW,313,0.0,4.0,87,0.00,,CLR,0.01,VWS V14.01,2013-01-08 04:50:00,
2013-01-07 20:55:00,50.2,46.5,30.11,WNW,288,2.0,4.0,87,0.00,,CLR,0.01,VWS V14.01,2013-01-08 04:55:00,
2013-01-07 21:00:00,50.2,46.2,30.11,WNW,301,1.0,4.0,86,0.00,,CLR,0.01,VWS V14.01,2013-01-08 05:00:00,
2013-01-07 21:01:00,50.2,46.2,30.11,WNW,287,6.0,6.0,86,0.00,,CLR,0.01,VWS V14.01,2013-01-08 05:01:00,
2013-01-07 21:03:00,50.4,46.4,30.11,WNW,293,2.0,6.0,86,0.00,,CLR,0.01,VWS V14.01,2013-01-08 05:03:00,
2013-01-07 21:08:00,50.4,46.1,30.11,WNW,289,0.0,6.0,85,0.00,,CLR,0.01,VWS V14.01,2013-01-08 05:08:00,
2013-01-07 21:13:00,50.5,46.2,30.11,NW,316,3.0,6.0,85,0.00,,CLR,0.01,VWS V14.01,2013-01-08 05:13:00,
2013-01-07 21:15:00,50.7,46.0,30.11,NW,316,4.0,6.0,84,0.00,,CLR,0.01,VWS V14.01,2013-01-08 05:15:00,
2013-01-07 21:18:00,50.8,46.2,30.11,NW,324,2.0,4.0,84,0.00,,CLR,0.01,VWS V14.01,2013-01-08 05:18:00,
2013-01-07 21:23:00,51.1,46.1,30.11,NW,325,3.0,4.0,83,0.00,,CLR,0.01,VWS V14.01,2013-01-08 05:23:00,
2013-01-07 21:28:00,51.4,46.4,30.11,NW,322,3.0,4.0,83,0.00,,CLR,0.01,VWS V14.01,2013-01-08 05:28:00,
2013-01-07 21:30:00,51.4,46.1,30.11,NW,322,2.0,4.0,82,0.00,,CLR,0.01,VWS V14.01,2013-01-08 05:30:00,
2013-01-07 21:33:00,51.6,46.3,30.11,NW,306,4.0,6.0,82,0.00,,CLR,0.01,VWS V14.01,2013-01-08 05:33:00,
2013-01-07 21:38:00,51.7,45.7,30.11,North,3,2.0,6.0,80,0.00,,CLR,0.01,VWS V14.01,2013-01-08 05:38:00,
2013-01-07 21:43:00,51.7,45.7,30.11,North,360,7.0,8.0,80,0.00,,CLR,0.01,VWS V14.01,2013-01-08 05:43:00,
2013-01-07 21:45:00,51.7,45.7,30.11,North,3,2.0,8.0,80,0.00,,CLR,0.01,VWS V14.01,2013-01-08 05:45:00,
2013-01-07 21:48:00,51.6,46.0,30.11,North,354,2.0,7.0,81,0.00,,CLR,0.01,VWS V14.01,2013-01-08 05:48:00,
2013-01-07 21:53:00,51.6,46.0,30.11,NNW,345,3.0,12.0,81,0.00,,CLR,0.01,VWS V14.01,2013-01-08 05:53:00,
2013-01-07 21:58:00,51.4,45.8,30.11,North,352,0.0,12.0,81,0.00,,CLR,0.01,VWS V14.01,2013-01-08 05:58:00,
2013-01-07 22:00:00,51.4,45.8,30.11,North,10,6.0,12.0,81,0.00,,CLR,0.01,VWS V14.01,2013-01-08 06:00:00,
2013-01-07 22:03:00,51.4,45.8,30.11,NNE,15,2.0,6.0,81,0.00,,CLR,0.01,VWS V14.01,2013-01-08 06:03:00,
2013-01-07 22:08:00,51.3,45.7,30.11,NW,318,3.0,6.0,81,0.00,,CLR,0.01,VWS V14.01,2013-01-08 06:08:00,
2013-01-07 22:13:00,51.4,45.5,30.11,North,8,2.0,6.0,80,0.00,,CLR,0.01,VWS V14.01,2013-01-08 06:13:00,
2013-01-07 22:15:00,51.4,45.5,30.10,North,351,0.0,6.0,80,0.00,,CLR,0.01,VWS V14.01,2013-01-08 06:15:00,
2013-01-07 22:18:00,51.6,45.6,30.11,North,358,4.0,5.0,80,0.00,,CLR,0.01,VWS V14.01,2013-01-08 06:18:00,
2013-01-07 22:23:00,51.7,45.4,30.11,NW,315,3.0,5.0,79,0.00,,CLR,0.01,VWS V14.01,2013-01-08 06:23:00,
2013-01-07 22:29:00,51.9,45.6,30.11,NW,316,2.0,5.0,79,0.00,,CLR,0.01,VWS V14.01,2013-01-08 06:29:00,
2013-01-07 22:30:00,52.0,45.7,30.10,NW,316,0.0,5.0,79,0.00,,CLR,0.01,VWS V14.01,2013-01-08 06:30:00,
2013-01-07 22:34:00,52.0,45.7,30.10,NNW,329,0.0,3.0,79,0.00,,CLR,0.01,VWS V14.01,2013-01-08 06:34:00,
2013-01-07 22:39:00,52.0,45.7,30.10,WNW,292,4.0,4.0,79,0.00,,CLR,0.01,VWS V14.01,2013-01-08 06:39:00,
2013-01-07 22:44:00,52.0,45.7,30.10,NW,308,1.0,5.0,79,0.00,,CLR,0.01,VWS V14.01,2013-01-08 06:44:00,
2013-01-07 22:45:00,52.0,45.7,30.10,NW,306,1.0,5.0,79,0.00,,CLR,0.01,VWS V14.01,2013-01-08 06:45:00,
2013-01-07 22:49:00,52.0,45.7,30.10,WNW,297,0.0,5.0,79,0.00,,CLR,0.01,VWS V14.01,2013-01-08 06:49:00,
2013-01-07 22:54:00,52.2,45.9,30.10,NW,322,2.0,6.0,79,0.00,,CLR,0.01,VWS V14.01,2013-01-08 06:54:00,
2013-01-07 22:59:00,52.2,45.9,30.10,NW,306,0.0,6.0,79,0.00,,CLR,0.01,VWS V14.01,2013-01-08 06:59:00,
2013-01-07 23:00:00,52.2,45.9,30.10,NW,311,1.0,6.0,79,0.00,,CLR,0.01,VWS V14.01,2013-01-08 07:00:00,
2013-01-07 23:04:00,52.2,45.9,30.10,NNW,335,0.0,3.0,79,0.00,,CLR,0.01,VWS V14.01,2013-01-08 07:04:00,
2013-01-07 23:09:00,52.2,46.2,30.10,NNW,335,1.0,6.0,80,0.00,,CLR,0.01,VWS V14.01,2013-01-08 07:09:00,
2013-01-07 23:14:00,52.2,46.2,30.10,NW,307,3.0,7.0,80,0.00,,CLR,0.01,VWS V14.01,2013-01-08 07:14:00,
2013-01-07 23:15:00,52.2,46.2,30.09,WNW,297,1.0,7.0,80,0.00,,CLR,0.01,VWS V14.01,2013-01-08 07:15:00,
2013-01-07 23:19:00,52.2,46.2,30.09,NNW,333,3.0,3.0,80,0.00,,CLR,0.01,VWS V14.01,2013-01-08 07:19:00,
2013-01-07 23:24:00,52.3,46.3,30.09,NW,322,1.0,5.0,80,0.00,,CLR,0.01,VWS V14.01,2013-01-08 07:24:00,
2013-01-07 23:29:00,52.5,46.2,30.09,NNE,25,4.0,5.0,79,0.00,,CLR,0.01,VWS V14.01,2013-01-08 07:29:00,
2013-01-07 23:30:00,52.6,46.3,30.10,NNE,25,3.0,5.0,79,0.00,,CLR,0.01,VWS V14.01,2013-01-08 07:30:00,
2013-01-07 23:34:00,52.6,46.3,30.10,NNW,348,2.0,3.0,79,0.00,,CLR,0.01,VWS V14.01,2013-01-08 07:34:00,
2013-01-07 23:39:00,52.6,46.3,30.10,North,356,3.0,3.0,79,0.00,,CLR,0.01,VWS V14.01,2013-01-08 07:39:00,
2013-01-07 23:44:00,52.8,46.5,30.10,North,357,1.0,3.0,79,0.00,,CLR,0.01,VWS V14.01,2013-01-08 07:44:00,
2013-01-07 23:45:00,52.8,46.5,30.11,North,357,3.0,3.0,79,0.00,,CLR,0.01,VWS V14.01,2013-01-08 07:45:00,
2013-01-07 23:49:00,52.8,46.5,30.11,North,357,2.0,3.0,79,0.00,,CLR,0.01,VWS V14.01,2013-01-08 07:49:00,
2013-01-07 23:54:00,52.9,46.6,30.11,NNE,25,0.0,5.0,79,0.00,,CLR,0.01,VWS V14.01,2013-01-08 07:54:00,
2013-01-07 23:59:00,52.8,46.5,30.11,NNW,345,0.0,9.0,79,0.00,,CLR,0.01,VWS V14.01,2013-01-08 07:59:00,